Terminal Aerodrome Forecast
Issued by NWS

Home | Current Version | Previous Version | Text Only | Print | Product List | Glossary On
Versions: 1 2 3 4 5 6 7 8 9 10 11 12 13
000
FTUS42 TJSJ 210531
TAFIST
TAF
TIST 210531Z 2106/2206 08015KT P6SM VCSH SKC
     FM211200 07018G30KT P6SM VCSH SCT025 BKN045
     FM220000 06016KT P6SM VCSH SCT024 SCT045=

USA.gov is the U.S. government's official web portal to all federal, state and local government web resources and services.